Time,TemperatureF,DewpointF,PressureIn,WindDirection,WindDirectionDegrees,WindSpeedMPH,WindSpeedGustMPH,Humidity,HourlyPrecipIn,Conditions,Clouds,dailyrainin,SoftwareType,DateUTC
2013-10-08 00:02:00,77.0,24.0,-100.00,North,-999,-999.0,-999.0,14,-99.99,,,-99.99,,2013-10-08 00:02:00,
2013-10-08 00:11:00,77.0,24.0,-100.00,North,-999,-999.0,-999.0,14,-99.99,,,-99.99,,2013-10-08 00:11:00,
2013-10-08 00:42:00,74.0,25.0,-100.00,North,-999,-999.0,-999.0,16,-99.99,,,-99.99,,2013-10-08 00:42:00,
2013-10-08 00:52:00,72.0,20.0,-100.00,North,-999,-999.0,-999.0,14,-99.99,,,-99.99,,2013-10-08 00:52:00,
2013-10-08 01:02:00,72.0,20.0,-100.00,North,-999,-999.0,-999.0,14,-99.99,,,-99.99,,2013-10-08 01:02:00,
2013-10-08 01:12:00,72.0,20.0,-100.00,North,-999,-999.0,-999.0,14,-99.99,,,-99.99,,2013-10-08 01:12:00,
2013-10-08 01:42:00,68.0,20.0,-100.00,North,-999,-999.0,-999.0,16,-99.99,,,-99.99,,2013-10-08 01:42:00,
2013-10-08 01:52:00,64.0,20.0,-100.00,North,-999,-999.0,-999.0,18,-99.99,,,-99.99,,2013-10-08 01:52:00,
2013-10-08 02:03:00,64.0,20.0,-100.00,North,-999,-999.0,-999.0,18,-99.99,,,-99.99,,2013-10-08 02:03:00,
2013-10-08 02:11:00,64.0,20.0,-100.00,North,-999,-999.0,-999.0,18,-99.99,,,-99.99,,2013-10-08 02:11:00,
2013-10-08 02:42:00,58.0,19.0,-100.00,North,-999,-999.0,-999.0,22,-99.99,,,-99.99,,2013-10-08 02:42:00,
2013-10-08 02:52:00,54.0,19.0,-100.00,North,-999,-999.0,-999.0,25,-99.99,,,-99.99,,2013-10-08 02:52:00,
2013-10-08 03:02:00,54.0,19.0,-100.00,North,-999,-999.0,-999.0,25,-99.99,,,-99.99,,2013-10-08 03:02:00,
2013-10-08 03:11:00,54.0,19.0,-100.00,North,-999,-999.0,-999.0,25,-99.99,,,-99.99,,2013-10-08 03:11:00,
2013-10-08 03:44:00,50.0,16.0,-100.00,North,-999,-999.0,-999.0,26,-99.99,,,-99.99,,2013-10-08 03:44:00,
2013-10-08 04:14:00,47.0,15.0,-100.00,North,-999,-999.0,-999.0,27,-99.99,,,-99.99,,2013-10-08 04:14:00,
2013-10-08 05:13:00,43.0,14.0,-100.00,North,-999,-999.0,-999.0,30,-99.99,,,-99.99,,2013-10-08 05:13:00,
2013-10-08 05:42:00,42.0,13.0,-100.00,North,-999,-999.0,-999.0,30,-99.99,,,-99.99,,2013-10-08 05:42:00,
2013-10-08 06:12:00,40.0,11.0,-100.00,North,-999,-999.0,-999.0,30,-99.99,,,-99.99,,2013-10-08 06:12:00,
2013-10-08 06:42:00,39.0,12.0,-100.00,North,-999,-999.0,-999.0,32,-99.99,,,-99.99,,2013-10-08 06:42:00,
2013-10-08 07:52:00,36.0,10.0,-100.00,North,-999,-999.0,-999.0,33,-99.99,,,-99.99,,2013-10-08 07:52:00,
2013-10-08 08:02:00,36.0,10.0,-100.00,North,-999,-999.0,-999.0,33,-99.99,,,-99.99,,2013-10-08 08:02:00,
2013-10-08 08:12:00,36.0,10.0,-100.00,North,-999,-999.0,-999.0,33,-99.99,,,-99.99,,2013-10-08 08:12:00,
2013-10-08 08:42:00,34.0,9.0,-100.00,North,-999,-999.0,-999.0,34,-99.99,,,0.00,,2013-10-08 08:42:00,
2013-10-08 08:52:00,34.0,10.0,-100.00,North,-999,-999.0,-999.0,36,-99.99,,,-99.99,,2013-10-08 08:52:00,
2013-10-08 09:02:00,34.0,10.0,-100.00,North,-999,-999.0,-999.0,36,-99.99,,,-99.99,,2013-10-08 09:02:00,
2013-10-08 09:53:00,32.0,8.0,-100.00,North,-999,-999.0,-999.0,36,-99.99,,,-99.99,,2013-10-08 09:53:00,
2013-10-08 10:03:00,32.0,8.0,-100.00,North,-999,-999.0,-999.0,36,-99.99,,,-99.99,,2013-10-08 10:03:00,
2013-10-08 10:42:00,32.0,10.0,-100.00,North,-999,-999.0,-999.0,39,-99.99,,,-99.99,,2013-10-08 10:42:00,
2013-10-08 11:52:00,31.0,9.0,-100.00,North,-999,-999.0,-999.0,39,-99.99,,,-99.99,,2013-10-08 11:52:00,
2013-10-08 12:01:00,31.0,9.0,-100.00,North,-999,-999.0,-999.0,39,-99.99,,,-99.99,,2013-10-08 12:01:00,
2013-10-08 12:12:00,31.0,9.0,-100.00,North,-999,-999.0,-999.0,39,-99.99,,,-99.99,,2013-10-08 12:12:00,
2013-10-08 12:52:00,30.0,9.0,-100.00,North,-999,-999.0,-999.0,40,-99.99,,,-99.99,,2013-10-08 12:52:00,
2013-10-08 13:01:00,30.0,9.0,-100.00,North,-999,-999.0,-999.0,40,-99.99,,,-99.99,,2013-10-08 13:01:00,
2013-10-08 13:11:00,30.0,9.0,-100.00,North,-999,-999.0,-999.0,40,-99.99,,,-99.99,,2013-10-08 13:11:00,
2013-10-08 13:42:00,30.0,9.0,-100.00,North,-999,-999.0,-999.0,41,-99.99,,,-99.99,,2013-10-08 13:42:00,
2013-10-08 15:11:00,31.0,11.0,-100.00,North,-999,-999.0,-999.0,43,-99.99,,,-99.99,,2013-10-08 15:11:00,
2013-10-08 16:13:00,47.0,18.0,-100.00,North,-999,-999.0,-999.0,31,-99.99,,,-99.99,,2013-10-08 16:13:00,
2013-10-08 16:42:00,60.0,21.0,-100.00,North,-999,-999.0,-999.0,22,-99.99,,,-99.99,,2013-10-08 16:42:00,
2013-10-08 17:52:00,71.0,23.0,-100.00,North,-999,-999.0,-999.0,16,-99.99,,,-99.99,,2013-10-08 17:52:00,
2013-10-08 18:01:00,71.0,23.0,-100.00,North,-999,-999.0,-999.0,16,-99.99,,,-99.99,,2013-10-08 18:01:00,
2013-10-08 18:11:00,71.0,23.0,-100.00,North,-999,-999.0,-999.0,16,-99.99,,,-99.99,,2013-10-08 18:11:00,
2013-10-08 18:42:00,73.0,26.0,-100.00,North,-999,-999.0,-999.0,17,-99.99,,,-99.99,,2013-10-08 18:42:00,
2013-10-08 19:01:00,73.0,27.0,-100.00,North,-999,-999.0,-999.0,18,-99.99,,,-99.99,,2013-10-08 19:01:00,
2013-10-08 19:42:00,73.0,27.0,-100.00,North,-999,-999.0,-999.0,18,-99.99,,,-99.99,,2013-10-08 19:42:00,
2013-10-08 19:52:00,73.0,27.0,-100.00,North,-999,-999.0,-999.0,18,-99.99,,,-99.99,,2013-10-08 19:52:00,
2013-10-08 20:22:00,73.0,36.0,-100.00,North,-999,-999.0,-999.0,26,-99.99,,,0.00,,2013-10-08 20:22:00,
2013-10-08 20:32:00,73.0,36.0,-100.00,North,-999,-999.0,-999.0,26,-99.99,,,0.00,,2013-10-08 20:32:00,
2013-10-08 20:42:00,73.0,36.0,-100.00,North,-999,-999.0,-999.0,26,-99.99,,,0.00,,2013-10-08 20:42:00,
2013-10-08 21:44:00,69.0,45.0,-100.00,North,-999,-999.0,-999.0,42,-99.99,,,-99.99,,2013-10-08 21:44:00,
2013-10-08 21:54:00,72.0,46.0,-100.00,North,-999,-999.0,-999.0,40,-99.99,,,-99.99,,2013-10-08 21:54:00,
2013-10-08 22:03:00,72.0,46.0,-100.00,North,-999,-999.0,-999.0,40,-99.99,,,-99.99,,2013-10-08 22:03:00,
2013-10-08 22:13:00,72.0,46.0,-100.00,North,-999,-999.0,-999.0,40,-99.99,,,-99.99,,2013-10-08 22:13:00,
2013-10-08 22:48:00,70.0,48.0,-100.00,North,-999,-999.0,-999.0,45,-99.99,,,-99.99,,2013-10-08 22:48:00,
2013-10-08 22:57:00,71.0,50.0,-100.00,North,-999,-999.0,-999.0,47,-99.99,,,-99.99,,2013-10-08 22:57:00,
2013-10-08 23:03:00,71.0,50.0,-100.00,North,-999,-999.0,-999.0,47,-99.99,,,-99.99,,2013-10-08 23:03:00,
2013-10-08 23:12:00,71.0,50.0,-100.00,North,-999,-999.0,-999.0,47,-99.99,,,-99.99,,2013-10-08 23:12:00,
2013-10-08 23:22:00,69.0,48.0,-100.00,North,-999,-999.0,-999.0,48,-99.99,,,-99.99,,2013-10-08 23:22:00,
2013-10-08 23:34:00,69.0,48.0,-100.00,North,-999,-999.0,-999.0,48,-99.99,,,-99.99,,2013-10-08 23:34:00,
2013-10-08 23:42:00,69.0,48.0,-100.00,North,-999,-999.0,-999.0,48,-99.99,,,-99.99,,2013-10-08 23:42:00,
2013-10-08 23:52:00,67.0,49.0,-100.00,North,-999,-999.0,-999.0,52,-99.99,,,-99.99,,2013-10-08 23:52:00,